sensor_id;sensor_type;location;lat;lon;timestamp;pressure;altitude;pressure_sealevel;temperature;humidity
78488;BME280;67885;49.758;9.582;2023-11-19T00:02:19;99053.03;;;11.50;60.93
78488;BME280;67885;49.758;9.582;2023-11-19T00:04:48;99044.97;;;11.52;61.30
78488;BME280;67885;49.758;9.582;2023-11-19T00:07:15;99011.63;;;11.28;61.48
78488;BME280;67885;49.758;9.582;2023-11-19T00:09:42;99085.56;;;11.52;61.27
78488;BME280;67885;49.758;9.582;2023-11-19T00:12:09;99043.72;;;11.56;61.15
78488;BME280;67885;49.758;9.582;2023-11-19T00:14:35;99042.34;;;11.61;61.48
78488;BME280;67885;49.758;9.582;2023-11-19T00:17:02;99045.44;;;11.67;61.42
78488;BME280;67885;49.758;9.582;2023-11-19T00:19:30;99028.38;;;11.69;61.13
78488;BME280;67885;49.758;9.582;2023-11-19T00:21:58;99036.66;;;11.76;61.28
78488;BME280;67885;49.758;9.582;2023-11-19T00:24:28;98969.00;;;11.41;61.45
78488;BME280;67885;49.758;9.582;2023-11-19T00:26:54;98947.56;;;11.33;61.62
78488;BME280;67885;49.758;9.582;2023-11-19T00:29:21;99047.91;;;11.99;60.72
78488;BME280;67885;49.758;9.582;2023-11-19T00:31:48;99006.09;;;11.81;60.26
78488;BME280;67885;49.758;9.582;2023-11-19T00:34:15;99008.19;;;11.88;60.65
78488;BME280;67885;49.758;9.582;2023-11-19T00:36:41;99030.94;;;12.11;60.21
78488;BME280;67885;49.758;9.582;2023-11-19T00:39:11;99025.19;;;12.16;59.92
78488;BME280;67885;49.758;9.582;2023-11-19T00:41:40;99027.31;;;12.22;60.11
78488;BME280;67885;49.758;9.582;2023-11-19T00:44:07;99019.75;;;12.27;59.91
78488;BME280;67885;49.758;9.582;2023-11-19T00:46:33;99018.63;;;12.30;59.74
78488;BME280;67885;49.758;9.582;2023-11-19T00:49:00;99029.53;;;12.37;60.45
78488;BME280;67885;49.758;9.582;2023-11-19T00:51:26;99035.72;;;12.47;60.24
78488;BME280;67885;49.758;9.582;2023-11-19T00:53:53;99024.41;;;12.55;59.64
78488;BME280;67885;49.758;9.582;2023-11-19T00:56:22;99031.94;;;12.59;60.15
78488;BME280;67885;49.758;9.582;2023-11-19T00:58:49;99018.06;;;12.65;58.75
78488;BME280;67885;49.758;9.582;2023-11-19T01:01:16;99016.28;;;12.66;59.04
78488;BME280;67885;49.758;9.582;2023-11-19T01:03:42;98989.28;;;12.61;60.13
78488;BME280;67885;49.758;9.582;2023-11-19T01:06:09;98917.44;;;12.23;59.49
78488;BME280;67885;49.758;9.582;2023-11-19T01:08:36;98986.88;;;12.77;60.04
78488;BME280;67885;49.758;9.582;2023-11-19T01:11:03;98989.41;;;12.79;59.36
78488;BME280;67885;49.758;9.582;2023-11-19T01:13:31;98992.91;;;12.79;58.85
78488;BME280;67885;49.758;9.582;2023-11-19T01:15:58;99003.53;;;12.79;59.44
78488;BME280;67885;49.758;9.582;2023-11-19T01:18:27;98986.47;;;12.72;59.38
78488;BME280;67885;49.758;9.582;2023-11-19T01:20:54;99020.44;;;12.88;59.57
78488;BME280;67885;49.758;9.582;2023-11-19T01:23:20;99006.03;;;12.81;59.10
78488;BME280;67885;49.758;9.582;2023-11-19T01:25:47;99013.88;;;12.82;59.26
78488;BME280;67885;49.758;9.582;2023-11-19T01:28:14;99012.34;;;12.80;58.93
78488;BME280;67885;49.758;9.582;2023-11-19T01:30:42;99000.03;;;12.69;60.05
78488;BME280;67885;49.758;9.582;2023-11-19T01:33:09;98957.56;;;12.50;59.67
78488;BME280;67885;49.758;9.582;2023-11-19T01:35:37;98986.59;;;12.71;59.34
78488;BME280;67885;49.758;9.582;2023-11-19T01:38:04;99014.16;;;12.79;59.26
78488;BME280;67885;49.758;9.582;2023-11-19T01:40:31;99001.44;;;12.73;60.31
78488;BME280;67885;49.758;9.582;2023-11-19T01:42:58;99016.41;;;12.74;59.39
78488;BME280;67885;49.758;9.582;2023-11-19T01:45:28;99006.72;;;12.83;59.64
78488;BME280;67885;49.758;9.582;2023-11-19T01:47:59;99014.59;;;12.85;59.86
78488;BME280;67885;49.758;9.582;2023-11-19T01:50:28;99010.66;;;12.89;60.00
78488;BME280;67885;49.758;9.582;2023-11-19T01:52:56;99023.66;;;12.92;59.92
78488;BME280;67885;49.758;9.582;2023-11-19T01:55:25;98944.56;;;12.56;60.08
78488;BME280;67885;49.758;9.582;2023-11-19T01:57:58;99012.44;;;12.98;59.98
78488;BME280;67885;49.758;9.582;2023-11-19T02:00:26;98974.56;;;12.76;60.14
78488;BME280;67885;49.758;9.582;2023-11-19T02:02:53;99007.94;;;13.08;59.90
78488;BME280;67885;49.758;9.582;2023-11-19T02:05:21;99007.38;;;13.14;59.33
78488;BME280;67885;49.758;9.582;2023-11-19T02:07:48;98988.06;;;13.12;59.05
78488;BME280;67885;49.758;9.582;2023-11-19T02:10:15;98928.31;;;12.59;59.54
78488;BME280;67885;49.758;9.582;2023-11-19T02:12:45;98970.28;;;13.23;59.97
78488;BME280;67885;49.758;9.582;2023-11-19T02:15:12;98932.41;;;13.01;59.31
78488;BME280;67885;49.758;9.582;2023-11-19T02:17:39;98913.50;;;13.04;59.26
78488;BME280;67885;49.758;9.582;2023-11-19T02:20:07;98921.44;;;13.14;59.49
78488;BME280;67885;49.758;9.582;2023-11-19T02:22:38;98926.03;;;13.22;59.51
78488;BME280;67885;49.758;9.582;2023-11-19T02:25:10;98892.03;;;13.15;59.60
78488;BME280;67885;49.758;9.582;2023-11-19T02:27:52;98891.41;;;13.04;60.07
78488;BME280;67885;49.758;9.582;2023-11-19T02:30:21;98842.31;;;12.70;61.14
78488;BME280;67885;49.758;9.582;2023-11-19T02:32:52;98886.00;;;12.95;60.82
78488;BME280;67885;49.758;9.582;2023-11-19T02:35:19;98882.78;;;12.92;61.63
78488;BME280;67885;49.758;9.582;2023-11-19T02:37:48;98889.78;;;12.93;61.61
78488;BME280;67885;49.758;9.582;2023-11-19T02:40:15;98881.56;;;12.86;61.24
78488;BME280;67885;49.758;9.582;2023-11-19T02:42:42;98893.97;;;12.95;61.23
78488;BME280;67885;49.758;9.582;2023-11-19T02:45:11;98883.47;;;12.94;61.42
78488;BME280;67885;49.758;9.582;2023-11-19T02:47:40;98888.94;;;12.92;61.87
78488;BME280;67885;49.758;9.582;2023-11-19T02:50:08;98859.75;;;12.82;60.88
78488;BME280;67885;49.758;9.582;2023-11-19T02:52:40;98873.28;;;12.89;61.39
78488;BME280;67885;49.758;9.582;2023-11-19T02:55:07;98876.63;;;12.91;61.80
78488;BME280;67885;49.758;9.582;2023-11-19T02:57:37;98818.84;;;12.56;60.90
78488;BME280;67885;49.758;9.582;2023-11-19T03:00:07;98847.03;;;12.76;61.09
78488;BME280;67885;49.758;9.582;2023-11-19T03:02:40;98887.38;;;12.99;61.27
78488;BME280;67885;49.758;9.582;2023-11-19T03:05:12;98876.63;;;12.91;61.15
78488;BME280;67885;49.758;9.582;2023-11-19T03:07:41;98845.16;;;12.87;61.30
78488;BME280;67885;49.758;9.582;2023-11-19T03:10:10;98882.53;;;13.13;61.10
78488;BME280;67885;49.758;9.582;2023-11-19T03:12:39;98874.97;;;13.18;60.60
78488;BME280;67885;49.758;9.582;2023-11-19T03:15:06;98852.22;;;13.06;60.86
78488;BME280;67885;49.758;9.582;2023-11-19T03:17:35;98871.41;;;13.27;60.96
78488;BME280;67885;49.758;9.582;2023-11-19T03:20:06;98860.31;;;13.32;61.29
78488;BME280;67885;49.758;9.582;2023-11-19T03:22:35;98899.66;;;13.38;60.65
78488;BME280;67885;49.758;9.582;2023-11-19T03:25:03;98847.19;;;13.40;60.32
78488;BME280;67885;49.758;9.582;2023-11-19T03:27:33;98838.53;;;13.28;60.82
78488;BME280;67885;49.758;9.582;2023-11-19T03:30:01;98876.72;;;13.37;61.15
78488;BME280;67885;49.758;9.582;2023-11-19T03:32:30;98855.16;;;13.40;60.54
78488;BME280;67885;49.758;9.582;2023-11-19T03:34:57;98847.03;;;13.32;60.71
78488;BME280;67885;49.758;9.582;2023-11-19T03:37:26;98846.91;;;13.33;61.18
78488;BME280;67885;49.758;9.582;2023-11-19T03:39:53;98840.56;;;13.35;61.15
78488;BME280;67885;49.758;9.582;2023-11-19T03:42:20;98857.03;;;13.48;61.00
78488;BME280;67885;49.758;9.582;2023-11-19T03:44:47;98859.44;;;13.51;60.94
78488;BME280;67885;49.758;9.582;2023-11-19T03:53:07;98845.28;;;13.69;60.33
78488;BME280;67885;49.758;9.582;2023-11-19T03:55:34;98845.97;;;13.89;59.81
78488;BME280;67885;49.758;9.582;2023-11-19T03:58:00;98830.63;;;13.82;59.87
78488;BME280;67885;49.758;9.582;2023-11-19T04:00:27;98851.50;;;13.95;59.88
78488;BME280;67885;49.758;9.582;2023-11-19T04:02:54;98847.16;;;13.94;59.68
78488;BME280;67885;49.758;9.582;2023-11-19T04:05:21;98839.19;;;13.94;60.52
78488;BME280;67885;49.758;9.582;2023-11-19T04:07:47;98819.91;;;13.74;60.65
78488;BME280;67885;49.758;9.582;2023-11-19T04:10:16;98822.72;;;13.73;60.71
78488;BME280;67885;49.758;9.582;2023-11-19T04:12:44;98848.34;;;13.92;60.80
78488;BME280;67885;49.758;9.582;2023-11-19T04:15:11;98830.63;;;13.82;61.21
78488;BME280;67885;49.758;9.582;2023-11-19T04:17:38;98839.50;;;13.73;60.90
78488;BME280;67885;49.758;9.582;2023-11-19T04:20:06;98832.81;;;13.87;61.35
78488;BME280;67885;49.758;9.582;2023-11-19T04:22:36;98825.97;;;13.85;62.17
78488;BME280;67885;49.758;9.582;2023-11-19T04:25:03;98826.28;;;13.81;61.62
78488;BME280;67885;49.758;9.582;2023-11-19T04:27:32;98806.06;;;13.71;61.95
78488;BME280;67885;49.758;9.582;2023-11-19T04:29:59;98826.56;;;13.60;61.91
78488;BME280;67885;49.758;9.582;2023-11-19T04:32:27;98824.09;;;13.77;62.72
78488;BME280;67885;49.758;9.582;2023-11-19T04:34:54;98817.75;;;13.78;62.53
78488;BME280;67885;49.758;9.582;2023-11-19T04:37:21;98774.28;;;13.51;62.58
78488;BME280;67885;49.758;9.582;2023-11-19T04:39:48;98827.09;;;13.82;62.62
78488;BME280;67885;49.758;9.582;2023-11-19T04:42:14;98803.31;;;13.62;62.60
78488;BME280;67885;49.758;9.582;2023-11-19T04:44:44;98816.53;;;13.72;62.88
78488;BME280;67885;49.758;9.582;2023-11-19T04:47:11;98818.84;;;13.85;63.34
78488;BME280;67885;49.758;9.582;2023-11-19T04:49:40;98817.69;;;13.88;62.81
78488;BME280;67885;49.758;9.582;2023-11-19T04:52:09;98821.03;;;13.90;63.23
78488;BME280;67885;49.758;9.582;2023-11-19T04:54:41;98831.34;;;13.93;62.90
78488;BME280;67885;49.758;9.582;2023-11-19T04:57:08;98832.88;;;13.95;63.08
78488;BME280;67885;49.758;9.582;2023-11-19T04:59:36;98819.56;;;13.95;62.71
78488;BME280;67885;49.758;9.582;2023-11-19T05:02:04;98809.22;;;13.92;63.15
78488;BME280;67885;49.758;9.582;2023-11-19T05:04:31;98807.22;;;13.94;63.20
78488;BME280;67885;49.758;9.582;2023-11-19T05:06:58;98819.94;;;14.00;63.08
78488;BME280;67885;49.758;9.582;2023-11-19T05:09:25;98807.22;;;13.94;63.21
78488;BME280;67885;49.758;9.582;2023-11-19T05:11:52;98793.13;;;13.76;63.23
78488;BME280;67885;49.758;9.582;2023-11-19T05:14:19;98807.16;;;13.86;63.78
78488;BME280;67885;49.758;9.582;2023-11-19T05:16:47;98824.66;;;14.07;63.09
78488;BME280;67885;49.758;9.582;2023-11-19T05:19:15;98796.53;;;13.86;63.17
78488;BME280;67885;49.758;9.582;2023-11-19T05:21:42;98752.25;;;13.41;63.45
78488;BME280;67885;49.758;9.582;2023-11-19T05:24:09;98817.97;;;14.03;63.35
78488;BME280;67885;49.758;9.582;2023-11-19T05:26:36;98818.81;;;14.03;63.70
78488;BME280;67885;49.758;9.582;2023-11-19T05:29:03;98827.00;;;14.10;63.64
78488;BME280;67885;49.758;9.582;2023-11-19T05:31:30;98819.69;;;14.12;63.76
78488;BME280;67885;49.758;9.582;2023-11-19T05:33:57;98801.31;;;14.00;63.80
78488;BME280;67885;49.758;9.582;2023-11-19T05:36:25;98816.25;;;14.20;63.61
78488;BME280;67885;49.758;9.582;2023-11-19T05:38:54;98799.91;;;14.14;63.29
78488;BME280;67885;49.758;9.582;2023-11-19T05:41:21;98806.44;;;14.20;63.17
78488;BME280;67885;49.758;9.582;2023-11-19T05:43:47;98810.75;;;14.21;63.42
78488;BME280;67885;49.758;9.582;2023-11-19T05:46:14;98801.09;;;14.20;63.47
78488;BME280;67885;49.758;9.582;2023-11-19T05:48:42;98790.94;;;14.15;63.61
78488;BME280;67885;49.758;9.582;2023-11-19T05:51:09;98815.31;;;14.29;63.23
78488;BME280;67885;49.758;9.582;2023-11-19T05:53:37;98825.00;;;14.30;63.47
78488;BME280;67885;49.758;9.582;2023-11-19T05:56:04;98816.16;;;14.29;62.92
78488;BME280;67885;49.758;9.582;2023-11-19T05:58:35;98820.88;;;14.36;63.11
78488;BME280;67885;49.758;9.582;2023-11-19T06:01:03;98816.06;;;14.39;63.69
78488;BME280;67885;49.758;9.582;2023-11-19T06:03:32;98800.59;;;14.43;63.18
78488;BME280;67885;49.758;9.582;2023-11-19T06:05:59;98801.94;;;14.47;62.97
78488;BME280;67885;49.758;9.582;2023-11-19T06:08:26;98790.63;;;14.45;63.03
78488;BME280;67885;49.758;9.582;2023-11-19T06:10:54;98806.66;;;14.53;62.95
78488;BME280;67885;49.758;9.582;2023-11-19T06:13:21;98811.00;;;14.54;62.80
78488;BME280;67885;49.758;9.582;2023-11-19T06:15:48;98809.97;;;14.55;63.06
78488;BME280;67885;49.758;9.582;2023-11-19T06:18:16;98744.09;;;14.05;62.62
78488;BME280;67885;49.758;9.582;2023-11-19T06:20:45;98815.09;;;14.66;62.43
78488;BME280;67885;49.758;9.582;2023-11-19T06:23:12;98807.78;;;14.77;62.62
78488;BME280;67885;49.758;9.582;2023-11-19T06:25:38;98777.44;;;14.70;61.63
78488;BME280;67885;49.758;9.582;2023-11-19T06:28:06;98801.69;;;14.93;61.61
78488;BME280;67885;49.758;9.582;2023-11-19T06:30:33;98746.28;;;14.70;61.55
78488;BME280;67885;49.758;9.582;2023-11-19T06:33:01;98807.28;;;15.16;61.54
78488;BME280;67885;49.758;9.582;2023-11-19T06:35:28;98814.81;;;15.29;60.53
78488;BME280;67885;49.758;9.582;2023-11-19T06:38:01;98809.50;;;15.37;60.22
78488;BME280;67885;49.758;9.582;2023-11-19T06:40:28;98794.31;;;15.38;59.70
78488;BME280;67885;49.758;9.582;2023-11-19T06:42:55;98502.41;;;12.95;60.19
78488;BME280;67885;49.758;9.582;2023-11-19T06:45:23;98793.81;;;15.42;60.69
78488;BME280;67885;49.758;9.582;2023-11-19T06:47:50;98681.66;;;14.68;60.88
78488;BME280;67885;49.758;9.582;2023-11-19T06:50:17;98786.13;;;15.31;61.24
78488;BME280;67885;49.758;9.582;2023-11-19T06:52:44;98807.66;;;15.46;61.16
78488;BME280;67885;49.758;9.582;2023-11-19T06:55:11;98801.50;;;15.45;61.26
78488;BME280;67885;49.758;9.582;2023-11-19T06:57:38;98799.84;;;15.44;61.42
78488;BME280;67885;49.758;9.582;2023-11-19T07:00:06;98795.66;;;15.33;61.36
78488;BME280;67885;49.758;9.582;2023-11-19T07:02:35;98812.66;;;15.41;61.48
78488;BME280;67885;49.758;9.582;2023-11-19T07:05:02;98812.00;;;15.39;61.60
78488;BME280;67885;49.758;9.582;2023-11-19T07:07:30;98823.16;;;15.34;61.87
78488;BME280;67885;49.758;9.582;2023-11-19T07:09:56;98823.47;;;15.31;62.31
78488;BME280;67885;49.758;9.582;2023-11-19T07:12:23;98820.28;;;15.27;62.54
78488;BME280;67885;49.758;9.582;2023-11-19T07:14:52;98817.97;;;15.24;62.46
78488;BME280;67885;49.758;9.582;2023-11-19T07:17:18;98819.97;;;15.22;62.84
78488;BME280;67885;49.758;9.582;2023-11-19T07:19:47;98819.13;;;15.22;63.17
78488;BME280;67885;49.758;9.582;2023-11-19T07:22:13;98816.44;;;15.22;62.82
78488;BME280;67885;49.758;9.582;2023-11-19T07:24:40;98819.97;;;15.22;62.89
78488;BME280;67885;49.758;9.582;2023-11-19T07:27:08;98822.81;;;15.21;62.95
78488;BME280;67885;49.758;9.582;2023-11-19T07:29:35;98810.44;;;15.11;63.69
78488;BME280;67885;49.758;9.582;2023-11-19T07:32:02;98800.06;;;15.08;63.18
78488;BME280;67885;49.758;9.582;2023-11-19T07:34:30;98824.16;;;15.25;63.18
78488;BME280;67885;49.758;9.582;2023-11-19T07:36:58;98829.31;;;15.26;63.02
78488;BME280;67885;49.758;9.582;2023-11-19T07:39:27;98829.16;;;15.28;62.79
78488;BME280;67885;49.758;9.582;2023-11-19T07:41:54;98835.31;;;15.28;62.90
78488;BME280;67885;49.758;9.582;2023-11-19T07:44:21;98818.47;;;15.20;62.84
78488;BME280;67885;49.758;9.582;2023-11-19T07:46:48;98834.31;;;15.29;63.01
78488;BME280;67885;49.758;9.582;2023-11-19T07:49:14;98837.97;;;15.28;63.09
78488;BME280;67885;49.758;9.582;2023-11-19T07:51:41;98839.66;;;15.29;63.64
78488;BME280;67885;49.758;9.582;2023-11-19T07:54:09;98845.97;;;15.28;63.36
78488;BME280;67885;49.758;9.582;2023-11-19T07:56:36;98848.66;;;15.28;63.33
78488;BME280;67885;49.758;9.582;2023-11-19T07:59:03;98838.84;;;15.29;64.17
78488;BME280;67885;49.758;9.582;2023-11-19T08:01:30;98842.16;;;15.31;63.79
78488;BME280;67885;49.758;9.582;2023-11-19T08:03:56;98846.34;;;15.33;63.53
78488;BME280;67885;49.758;9.582;2023-11-19T08:06:23;98848.84;;;15.35;63.63
78488;BME280;67885;49.758;9.582;2023-11-19T08:08:49;98846.69;;;15.39;63.52
78488;BME280;67885;49.758;9.582;2023-11-19T08:11:18;98846.53;;;15.40;63.45
78488;BME280;67885;49.758;9.582;2023-11-19T08:13:45;98835.66;;;15.33;63.67
78488;BME280;67885;49.758;9.582;2023-11-19T08:16:12;98850.38;;;15.46;63.79
78488;BME280;67885;49.758;9.582;2023-11-19T08:18:41;98848.88;;;15.51;63.92
78488;BME280;67885;49.758;9.582;2023-11-19T08:21:09;98838.72;;;15.55;63.50
78488;BME280;67885;49.758;9.582;2023-11-19T08:23:36;98842.41;;;15.62;63.41
78488;BME280;67885;49.758;9.582;2023-11-19T08:26:03;98838.06;;;15.61;63.00
78488;BME280;67885;49.758;9.582;2023-11-19T08:28:32;98842.75;;;15.67;63.15
78488;BME280;67885;49.758;9.582;2023-11-19T08:30:59;98842.09;;;15.74;63.58
78488;BME280;67885;49.758;9.582;2023-11-19T08:33:26;98846.47;;;15.83;63.42
78488;BME280;67885;49.758;9.582;2023-11-19T08:35:53;98844.97;;;15.89;62.76
78488;BME280;67885;49.758;9.582;2023-11-19T08:38:19;98831.94;;;15.85;62.85
78488;BME280;67885;49.758;9.582;2023-11-19T08:40:46;98833.94;;;15.92;62.35
78488;BME280;67885;49.758;9.582;2023-11-19T08:43:12;98849.81;;;16.10;62.89
78488;BME280;67885;49.758;9.582;2023-11-19T08:45:40;98841.78;;;16.18;62.63
78488;BME280;67885;49.758;9.582;2023-11-19T08:48:07;98855.47;;;16.31;61.96
78488;BME280;67885;49.758;9.582;2023-11-19T08:50:33;98839.75;;;16.45;61.41
78488;BME280;67885;49.758;9.582;2023-11-19T08:53:00;98843.09;;;16.55;61.36
78488;BME280;67885;49.758;9.582;2023-11-19T08:55:27;98839.41;;;16.64;61.70
78488;BME280;67885;49.758;9.582;2023-11-19T08:57:53;98843.22;;;16.70;60.83
78488;BME280;67885;49.758;9.582;2023-11-19T09:00:20;98825.00;;;16.65;60.63
78488;BME280;67885;49.758;9.582;2023-11-19T09:02:48;98859.22;;;16.95;60.29
78488;BME280;67885;49.758;9.582;2023-11-19T09:05:15;98851.34;;;17.01;58.72
78488;BME280;67885;49.758;9.582;2023-11-19T09:07:41;98854.34;;;17.07;59.35
78488;BME280;67885;49.758;9.582;2023-11-19T09:10:08;98856.16;;;17.06;58.72
78488;BME280;67885;49.758;9.582;2023-11-19T09:12:37;98851.66;;;17.07;58.69
78488;BME280;67885;49.758;9.582;2023-11-19T09:15:04;98847.09;;;17.15;58.86
78488;BME280;67885;49.758;9.582;2023-11-19T09:17:31;98848.72;;;17.25;58.98
78488;BME280;67885;49.758;9.582;2023-11-19T09:20:00;98840.88;;;17.23;58.27
78488;BME280;67885;49.758;9.582;2023-11-19T09:22:26;98866.06;;;17.37;57.83
78488;BME280;67885;49.758;9.582;2023-11-19T09:24:53;98850.81;;;17.46;57.93
78488;BME280;67885;49.758;9.582;2023-11-19T09:27:20;98851.75;;;17.53;56.82
78488;BME280;67885;49.758;9.582;2023-11-19T09:29:46;98844.59;;;17.45;57.36
78488;BME280;67885;49.758;9.582;2023-11-19T09:32:15;98862.97;;;17.48;56.51
78488;BME280;67885;49.758;9.582;2023-11-19T09:34:41;98856.31;;;17.44;57.11
78488;BME280;67885;49.758;9.582;2023-11-19T09:37:09;98856.06;;;17.31;56.56
78488;BME280;67885;49.758;9.582;2023-11-19T09:39:36;98862.75;;;17.35;57.71
78488;BME280;67885;49.758;9.582;2023-11-19T09:42:03;98861.06;;;17.34;56.77
78488;BME280;67885;49.758;9.582;2023-11-19T09:44:30;98855.03;;;17.32;57.29
78488;BME280;67885;49.758;9.582;2023-11-19T09:46:58;98856.84;;;17.40;57.94
78488;BME280;67885;49.758;9.582;2023-11-19T09:49:26;98859.16;;;17.43;57.27
78488;BME280;67885;49.758;9.582;2023-11-19T09:51:54;98862.56;;;17.36;56.83
78488;BME280;67885;49.758;9.582;2023-11-19T09:54:22;98799.34;;;17.04;58.01
78488;BME280;67885;49.758;9.582;2023-11-19T09:56:48;98847.63;;;17.42;57.25
78488;BME280;67885;49.758;9.582;2023-11-19T09:59:16;98850.31;;;17.42;57.36
78488;BME280;67885;49.758;9.582;2023-11-19T10:01:43;98855.19;;;17.39;57.92
78488;BME280;67885;49.758;9.582;2023-11-19T10:04:15;98853.22;;;17.32;57.78
78488;BME280;67885;49.758;9.582;2023-11-19T10:06:42;98851.91;;;17.28;57.65
78488;BME280;67885;49.758;9.582;2023-11-19T10:09:09;98848.72;;;17.25;58.58
78488;BME280;67885;49.758;9.582;2023-11-19T10:11:37;98851.41;;;17.25;57.97
78488;BME280;67885;49.758;9.582;2023-11-19T10:14:04;98846.06;;;17.25;58.07
78488;BME280;67885;49.758;9.582;2023-11-19T10:16:31;98853.13;;;17.17;58.20
78488;BME280;67885;49.758;9.582;2023-11-19T10:19:00;98847.09;;;17.15;58.24
78488;BME280;67885;49.758;9.582;2023-11-19T10:21:28;98850.91;;;17.21;59.19
78488;BME280;67885;49.758;9.582;2023-11-19T10:23:57;98851.53;;;17.31;59.07
78488;BME280;67885;49.758;9.582;2023-11-19T10:26:26;98809.59;;;17.24;59.08
78488;BME280;67885;49.758;9.582;2023-11-19T10:28:55;98813.47;;;17.44;57.87
78488;BME280;67885;49.758;9.582;2023-11-19T10:31:22;98816.09;;;17.52;56.99
78488;BME280;67885;49.758;9.582;2023-11-19T10:33:50;98821.59;;;17.59;56.98
78488;BME280;67885;49.758;9.582;2023-11-19T10:36:17;98815.53;;;17.65;55.65
78488;BME280;67885;49.758;9.582;2023-11-19T10:38:52;98823.81;;;17.56;55.30
78488;BME280;67885;49.758;9.582;2023-11-19T10:41:29;98820.16;;;17.48;55.30
78488;BME280;67885;49.758;9.582;2023-11-19T10:43:58;98834.25;;;17.42;55.26
78488;BME280;67885;49.758;9.582;2023-11-19T10:46:36;98821.28;;;17.31;54.54
78488;BME280;67885;49.758;9.582;2023-11-19T10:49:04;98836.47;;;17.30;54.86
78488;BME280;67885;49.758;9.582;2023-11-19T10:51:32;98839.88;;;17.24;55.19
78488;BME280;67885;49.758;9.582;2023-11-19T10:54:02;98839.38;;;17.21;55.74
78488;BME280;67885;49.758;9.582;2023-11-19T10:56:32;98834.06;;;17.12;55.88
78488;BME280;67885;49.758;9.582;2023-11-19T10:59:01;98848.84;;;17.00;56.79
78488;BME280;67885;49.758;9.582;2023-11-19T11:01:39;98829.47;;;16.90;57.75
78488;BME280;67885;49.758;9.582;2023-11-19T11:04:13;98845.66;;;16.88;57.60
78488;BME280;67885;49.758;9.582;2023-11-19T11:06:41;98814.78;;;16.77;58.82
78488;BME280;67885;49.758;9.582;2023-11-19T11:09:10;98829.28;;;16.83;58.68
78488;BME280;67885;49.758;9.582;2023-11-19T11:11:39;98832.16;;;16.81;58.13
78488;BME280;67885;49.758;9.582;2023-11-19T11:14:12;98800.09;;;16.73;58.39
78488;BME280;67885;49.758;9.582;2023-11-19T11:16:42;98824.63;;;16.85;57.66
78488;BME280;67885;49.758;9.582;2023-11-19T11:19:10;98826.63;;;16.83;57.74
78488;BME280;67885;49.758;9.582;2023-11-19T11:21:39;98825.44;;;16.85;58.13
78488;BME280;67885;49.758;9.582;2023-11-19T11:24:50;98799.63;;;16.61;56.92
78488;BME280;67885;49.758;9.582;2023-11-19T11:27:43;98821.28;;;16.83;57.18
78488;BME280;67885;49.758;9.582;2023-11-19T11:30:27;98841.31;;;16.95;57.64
78488;BME280;67885;49.758;9.582;2023-11-19T11:33:10;98795.19;;;16.85;57.17
78488;BME280;67885;49.758;9.582;2023-11-19T11:35:50;98810.34;;;17.01;56.70
78488;BME280;67885;49.758;9.582;2023-11-19T11:38:22;98809.13;;;17.20;57.52
78488;BME280;67885;49.758;9.582;2023-11-19T11:41:17;98790.72;;;17.17;57.13
78488;BME280;67885;49.758;9.582;2023-11-19T11:43:49;98817.44;;;17.25;56.93
78488;BME280;67885;49.758;9.582;2023-11-19T11:46:54;98809.72;;;17.30;57.72
78488;BME280;67885;49.758;9.582;2023-11-19T11:49:28;98784.06;;;17.13;57.58
78488;BME280;67885;49.758;9.582;2023-11-19T11:52:01;98799.69;;;17.32;56.22
78488;BME280;67885;49.758;9.582;2023-11-19T11:54:29;98796.66;;;17.35;57.24
78488;BME280;67885;49.758;9.582;2023-11-19T11:57:03;98782.59;;;17.33;57.69
78488;BME280;67885;49.758;9.582;2023-11-19T11:59:45;98797.25;;;17.46;57.75
78488;BME280;67885;49.758;9.582;2023-11-19T12:02:15;98780.63;;;17.27;56.43
78488;BME280;67885;49.758;9.582;2023-11-19T12:04:43;98797.25;;;17.46;56.00
78488;BME280;67885;49.758;9.582;2023-11-19T12:07:14;98793.28;;;17.42;55.03
78488;BME280;67885;49.758;9.582;2023-11-19T12:09:42;98798.97;;;17.39;56.36
78488;BME280;67885;49.758;9.582;2023-11-19T12:12:23;98785.06;;;17.43;55.71
78488;BME280;67885;49.758;9.582;2023-11-19T12:15:01;98752.94;;;17.20;54.67
78488;BME280;67885;49.758;9.582;2023-11-19T12:17:41;98778.03;;;17.42;54.68
78488;BME280;67885;49.758;9.582;2023-11-19T12:20:10;98779.53;;;17.45;55.12
78488;BME280;67885;49.758;9.582;2023-11-19T12:22:38;98778.84;;;17.43;54.17
78488;BME280;67885;49.758;9.582;2023-11-19T12:25:06;98778.97;;;17.49;53.30
78488;BME280;67885;49.758;9.582;2023-11-19T12:27:34;98753.00;;;17.35;53.64
78488;BME280;67885;49.758;9.582;2023-11-19T12:30:01;98763.34;;;17.38;54.20
78488;BME280;67885;49.758;9.582;2023-11-19T12:32:39;98769.13;;;17.50;53.97
78488;BME280;67885;49.758;9.582;2023-11-19T12:35:07;98779.22;;;17.63;52.99
78488;BME280;67885;49.758;9.582;2023-11-19T12:37:41;98775.72;;;17.62;53.06
78488;BME280;67885;49.758;9.582;2023-11-19T12:40:14;98783.63;;;17.56;53.40
78488;BME280;67885;49.758;9.582;2023-11-19T12:42:42;98783.50;;;17.49;53.59
78488;BME280;67885;49.758;9.582;2023-11-19T12:45:09;98767.81;;;17.46;53.13
78488;BME280;67885;49.758;9.582;2023-11-19T12:47:39;98774.34;;;17.43;53.38
78488;BME280;67885;49.758;9.582;2023-11-19T12:50:06;98762.34;;;17.39;52.92
78488;BME280;67885;49.758;9.582;2023-11-19T12:52:34;98765.22;;;17.29;53.38
78488;BME280;67885;49.758;9.582;2023-11-19T12:55:01;98745.00;;;17.27;52.46
78488;BME280;67885;49.758;9.582;2023-11-19T12:57:38;98753.03;;;17.27;53.32
78488;BME280;67885;49.758;9.582;2023-11-19T13:00:06;98763.47;;;17.45;53.24
78488;BME280;67885;49.758;9.582;2023-11-19T13:02:48;98750.53;;;17.48;52.81
78488;BME280;67885;49.758;9.582;2023-11-19T13:05:30;98727.88;;;17.36;53.47
78488;BME280;67885;49.758;9.582;2023-11-19T13:11:37;98736.88;;;17.43;52.90
78488;BME280;67885;49.758;9.582;2023-11-19T13:16:47;98582.50;;;16.11;52.22
78488;BME280;67885;49.758;9.582;2023-11-19T13:19:16;98739.31;;;17.53;51.08
78488;BME280;67885;49.758;9.582;2023-11-19T13:24:18;98732.28;;;17.52;50.59